sensor_id;sensor_type;location;lat;lon;timestamp;P1;durP1;ratioP1;P2;durP2;ratioP2
24325;SDS011;12448;45.532;5.290;2023-09-19T00:02:44;7.20;;;2.45;;
24325;SDS011;12448;45.532;5.290;2023-09-19T00:11:12;3.72;;;2.20;;
24325;SDS011;12448;45.532;5.290;2023-09-19T00:17:12;5.45;;;2.33;;
24325;SDS011;12448;45.532;5.290;2023-09-19T00:23:19;4.82;;;2.63;;
24325;SDS011;12448;45.532;5.290;2023-09-19T00:25:45;5.05;;;2.53;;
24325;SDS011;12448;45.532;5.290;2023-09-19T00:28:10;7.55;;;2.65;;
24325;SDS011;12448;45.532;5.290;2023-09-19T00:30:36;9.60;;;2.75;;
24325;SDS011;12448;45.532;5.290;2023-09-19T00:42:49;5.07;;;2.50;;
24325;SDS011;12448;45.532;5.290;2023-09-19T00:45:15;7.07;;;2.55;;
24325;SDS011;12448;45.532;5.290;2023-09-19T00:47:49;5.40;;;2.63;;
24325;SDS011;12448;45.532;5.290;2023-09-19T00:50:16;7.43;;;2.38;;
24325;SDS011;12448;45.532;5.290;2023-09-19T00:52:48;6.13;;;2.22;;
24325;SDS011;12448;45.532;5.290;2023-09-19T00:55:33;3.55;;;2.20;;
24325;SDS011;12448;45.532;5.290;2023-09-19T00:58:05;7.72;;;3.00;;
24325;SDS011;12448;45.532;5.290;2023-09-19T01:00:38;6.78;;;2.70;;
24325;SDS011;12448;45.532;5.290;2023-09-19T01:06:04;7.35;;;2.88;;
24325;SDS011;12448;45.532;5.290;2023-09-19T01:08:30;5.00;;;2.75;;
24325;SDS011;12448;45.532;5.290;2023-09-19T01:10:59;7.78;;;3.00;;
24325;SDS011;12448;45.532;5.290;2023-09-19T01:16:19;8.52;;;3.30;;
24325;SDS011;12448;45.532;5.290;2023-09-19T01:22:29;5.32;;;2.67;;
24325;SDS011;12448;45.532;5.290;2023-09-19T01:31:55;6.93;;;3.00;;
24325;SDS011;12448;45.532;5.290;2023-09-19T01:34:58;7.47;;;3.10;;
24325;SDS011;12448;45.532;5.290;2023-09-19T01:38:06;10.43;;;3.10;;
24325;SDS011;12448;45.532;5.290;2023-09-19T01:41:08;9.13;;;2.90;;
24325;SDS011;12448;45.532;5.290;2023-09-19T01:44:54;7.38;;;3.03;;
24325;SDS011;12448;45.532;5.290;2023-09-19T01:50:59;10.23;;;3.22;;
24325;SDS011;12448;45.532;5.290;2023-09-19T01:56:34;9.55;;;2.75;;
24325;SDS011;12448;45.532;5.290;2023-09-19T02:02:55;13.20;;;2.90;;
24325;SDS011;12448;45.532;5.290;2023-09-19T02:05:35;5.47;;;2.42;;
24325;SDS011;12448;45.532;5.290;2023-09-19T02:08:24;8.95;;;2.60;;
24325;SDS011;12448;45.532;5.290;2023-09-19T02:11:13;5.78;;;2.30;;
24325;SDS011;12448;45.532;5.290;2023-09-19T02:14:04;7.07;;;2.47;;
24325;SDS011;12448;45.532;5.290;2023-09-19T02:16:33;9.40;;;2.90;;
24325;SDS011;12448;45.532;5.290;2023-09-19T02:19:20;8.05;;;3.03;;
24325;SDS011;12448;45.532;5.290;2023-09-19T02:21:56;7.57;;;3.25;;
24325;SDS011;12448;45.532;5.290;2023-09-19T02:25:08;6.95;;;2.90;;
24325;SDS011;12448;45.532;5.290;2023-09-19T02:31:35;4.32;;;2.38;;
24325;SDS011;12448;45.532;5.290;2023-09-19T02:34:10;8.10;;;2.70;;
24325;SDS011;12448;45.532;5.290;2023-09-19T02:37:00;6.97;;;2.78;;
24325;SDS011;12448;45.532;5.290;2023-09-19T02:40:03;5.47;;;2.70;;
24325;SDS011;12448;45.532;5.290;2023-09-19T02:42:59;7.57;;;2.60;;
24325;SDS011;12448;45.532;5.290;2023-09-19T02:48:51;5.80;;;2.33;;
24325;SDS011;12448;45.532;5.290;2023-09-19T02:51:22;6.18;;;2.70;;
24325;SDS011;12448;45.532;5.290;2023-09-19T02:54:04;8.80;;;2.97;;
24325;SDS011;12448;45.532;5.290;2023-09-19T02:59:15;8.48;;;2.50;;
24325;SDS011;12448;45.532;5.290;2023-09-19T03:02:05;6.47;;;2.70;;
24325;SDS011;12448;45.532;5.290;2023-09-19T03:04:30;5.22;;;2.88;;
24325;SDS011;12448;45.532;5.290;2023-09-19T03:07:03;6.50;;;2.53;;
24325;SDS011;12448;45.532;5.290;2023-09-19T03:09:38;7.20;;;2.40;;
24325;SDS011;12448;45.532;5.290;2023-09-19T03:15:14;6.40;;;1.83;;
24325;SDS011;12448;45.532;5.290;2023-09-19T03:17:49;7.43;;;2.30;;
24325;SDS011;12448;45.532;5.290;2023-09-19T03:20:40;7.63;;;2.10;;
24325;SDS011;12448;45.532;5.290;2023-09-19T03:23:25;7.88;;;2.10;;
24325;SDS011;12448;45.532;5.290;2023-09-19T03:25:52;5.55;;;2.10;;
24325;SDS011;12448;45.532;5.290;2023-09-19T03:28:44;6.38;;;3.00;;
24325;SDS011;12448;45.532;5.290;2023-09-19T03:31:11;5.00;;;2.80;;
24325;SDS011;12448;45.532;5.290;2023-09-19T03:37:01;9.45;;;4.25;;
24325;SDS011;12448;45.532;5.290;2023-09-19T03:39:36;6.90;;;5.15;;
24325;SDS011;12448;45.532;5.290;2023-09-19T03:42:08;9.27;;;5.30;;
24325;SDS011;12448;45.532;5.290;2023-09-19T03:45:03;11.77;;;4.90;;
24325;SDS011;12448;45.532;5.290;2023-09-19T03:47:36;4.38;;;3.88;;
24325;SDS011;12448;45.532;5.290;2023-09-19T03:50:08;5.43;;;3.22;;
24325;SDS011;12448;45.532;5.290;2023-09-19T03:52:36;3.95;;;3.08;;
24325;SDS011;12448;45.532;5.290;2023-09-19T03:55:30;7.05;;;3.28;;
24325;SDS011;12448;45.532;5.290;2023-09-19T03:58:07;5.93;;;3.42;;
24325;SDS011;12448;45.532;5.290;2023-09-19T04:00:35;3.75;;;2.63;;
24325;SDS011;12448;45.532;5.290;2023-09-19T04:03:01;5.55;;;3.00;;
24325;SDS011;12448;45.532;5.290;2023-09-19T04:05:30;5.32;;;2.40;;
24325;SDS011;12448;45.532;5.290;2023-09-19T04:08:21;3.67;;;2.25;;
24325;SDS011;12448;45.532;5.290;2023-09-19T04:11:13;5.45;;;2.00;;
24325;SDS011;12448;45.532;5.290;2023-09-19T04:14:07;3.65;;;1.85;;
24325;SDS011;12448;45.532;5.290;2023-09-19T04:16:45;5.25;;;2.03;;
24325;SDS011;12448;45.532;5.290;2023-09-19T04:19:10;5.05;;;1.80;;
24325;SDS011;12448;45.532;5.290;2023-09-19T04:21:45;3.40;;;1.73;;
24325;SDS011;12448;45.532;5.290;2023-09-19T04:24:14;2.67;;;1.92;;
24325;SDS011;12448;45.532;5.290;2023-09-19T04:26:48;4.07;;;1.88;;
24325;SDS011;12448;45.532;5.290;2023-09-19T04:29:14;4.72;;;1.98;;
24325;SDS011;12448;45.532;5.290;2023-09-19T04:31:40;4.32;;;1.92;;
24325;SDS011;12448;45.532;5.290;2023-09-19T04:34:08;2.90;;;1.88;;
24325;SDS011;12448;45.532;5.290;2023-09-19T04:36:35;2.40;;;1.80;;
24325;SDS011;12448;45.532;5.290;2023-09-19T04:39:04;3.00;;;1.60;;
24325;SDS011;12448;45.532;5.290;2023-09-19T04:41:30;3.05;;;1.77;;
24325;SDS011;12448;45.532;5.290;2023-09-19T04:46:41;2.80;;;1.48;;
24325;SDS011;12448;45.532;5.290;2023-09-19T04:49:07;2.78;;;1.20;;
24325;SDS011;12448;45.532;5.290;2023-09-19T04:51:36;4.70;;;1.30;;
24325;SDS011;12448;45.532;5.290;2023-09-19T04:54:01;2.17;;;1.30;;
24325;SDS011;12448;45.532;5.290;2023-09-19T04:56:28;2.47;;;1.45;;
24325;SDS011;12448;45.532;5.290;2023-09-19T04:59:08;1.55;;;1.10;;
24325;SDS011;12448;45.532;5.290;2023-09-19T05:01:40;2.83;;;1.27;;
24325;SDS011;12448;45.532;5.290;2023-09-19T05:04:12;3.33;;;1.10;;
24325;SDS011;12448;45.532;5.290;2023-09-19T05:06:46;2.42;;;1.08;;
24325;SDS011;12448;45.532;5.290;2023-09-19T05:09:18;6.00;;;1.50;;
24325;SDS011;12448;45.532;5.290;2023-09-19T05:11:45;2.78;;;1.42;;
24325;SDS011;12448;45.532;5.290;2023-09-19T05:20:04;2.42;;;1.40;;
24325;SDS011;12448;45.532;5.290;2023-09-19T05:22:41;2.88;;;1.30;;
24325;SDS011;12448;45.532;5.290;2023-09-19T05:25:08;3.30;;;1.60;;
24325;SDS011;12448;45.532;5.290;2023-09-19T05:27:35;5.28;;;1.42;;
24325;SDS011;12448;45.532;5.290;2023-09-19T05:30:01;8.02;;;5.25;;
24325;SDS011;12448;45.532;5.290;2023-09-19T05:32:30;6.35;;;1.98;;
24325;SDS011;12448;45.532;5.290;2023-09-19T05:35:34;3.00;;;1.70;;
24325;SDS011;12448;45.532;5.290;2023-09-19T05:38:16;3.33;;;1.75;;
24325;SDS011;12448;45.532;5.290;2023-09-19T05:41:23;4.70;;;1.60;;
24325;SDS011;12448;45.532;5.290;2023-09-19T06:18:10;3.13;;;1.50;;
24325;SDS011;12448;45.532;5.290;2023-09-19T06:30:50;2.08;;;1.13;;
24325;SDS011;12448;45.532;5.290;2023-09-19T06:39:43;4.32;;;1.52;;
24325;SDS011;12448;45.532;5.290;2023-09-19T06:42:08;2.88;;;1.50;;
24325;SDS011;12448;45.532;5.290;2023-09-19T06:44:34;1.95;;;1.10;;
24325;SDS011;12448;45.532;5.290;2023-09-19T06:47:00;3.03;;;1.15;;
24325;SDS011;12448;45.532;5.290;2023-09-19T06:49:28;7.93;;;1.23;;
24325;SDS011;12448;45.532;5.290;2023-09-19T06:52:20;4.15;;;1.42;;
24325;SDS011;12448;45.532;5.290;2023-09-19T06:55:20;4.78;;;1.40;;
24325;SDS011;12448;45.532;5.290;2023-09-19T06:57:41;5.45;;;1.23;;
24325;SDS011;12448;45.532;5.290;2023-09-19T07:00:08;3.10;;;1.02;;
24325;SDS011;12448;45.532;5.290;2023-09-19T07:02:40;1.85;;;0.88;;
24325;SDS011;12448;45.532;5.290;2023-09-19T07:05:06;4.07;;;1.00;;
24325;SDS011;12448;45.532;5.290;2023-09-19T07:08:08;2.55;;;1.30;;
24325;SDS011;12448;45.532;5.290;2023-09-19T07:10:43;3.30;;;1.20;;
24325;SDS011;12448;45.532;5.290;2023-09-19T07:13:19;5.70;;;1.00;;
24325;SDS011;12448;45.532;5.290;2023-09-19T07:16:27;3.83;;;1.20;;
24325;SDS011;12448;45.532;5.290;2023-09-19T07:19:07;5.43;;;1.20;;
24325;SDS011;12448;45.532;5.290;2023-09-19T07:25:14;5.35;;;1.30;;
24325;SDS011;12448;45.532;5.290;2023-09-19T07:28:01;4.22;;;1.20;;
24325;SDS011;12448;45.532;5.290;2023-09-19T07:30:27;2.25;;;1.15;;
24325;SDS011;12448;45.532;5.290;2023-09-19T07:32:53;2.78;;;1.20;;
24325;SDS011;12448;45.532;5.290;2023-09-19T07:35:19;3.83;;;1.63;;
24325;SDS011;12448;45.532;5.290;2023-09-19T07:38:13;3.80;;;1.20;;
24325;SDS011;12448;45.532;5.290;2023-09-19T07:41:00;3.17;;;1.30;;
24325;SDS011;12448;45.532;5.290;2023-09-19T07:43:44;5.60;;;1.40;;
24325;SDS011;12448;45.532;5.290;2023-09-19T07:46:36;3.88;;;1.45;;
24325;SDS011;12448;45.532;5.290;2023-09-19T07:49:14;4.13;;;1.67;;
24325;SDS011;12448;45.532;5.290;2023-09-19T07:52:29;4.88;;;1.38;;
24325;SDS011;12448;45.532;5.290;2023-09-19T07:58:48;6.60;;;2.20;;
24325;SDS011;12448;45.532;5.290;2023-09-19T08:01:14;4.97;;;1.45;;
24325;SDS011;12448;45.532;5.290;2023-09-19T08:07:38;4.78;;;1.63;;
24325;SDS011;12448;45.532;5.290;2023-09-19T08:10:42;7.43;;;1.50;;
24325;SDS011;12448;45.532;5.290;2023-09-19T08:13:54;4.22;;;1.30;;
24325;SDS011;12448;45.532;5.290;2023-09-19T08:16:20;7.93;;;1.50;;
24325;SDS011;12448;45.532;5.290;2023-09-19T08:18:47;6.28;;;1.52;;
24325;SDS011;12448;45.532;5.290;2023-09-19T08:21:13;5.43;;;2.13;;
24325;SDS011;12448;45.532;5.290;2023-09-19T08:23:40;5.07;;;1.45;;
24325;SDS011;12448;45.532;5.290;2023-09-19T08:26:07;4.68;;;1.60;;
24325;SDS011;12448;45.532;5.290;2023-09-19T08:28:36;5.75;;;1.77;;
24325;SDS011;12448;45.532;5.290;2023-09-19T08:31:05;3.47;;;1.40;;
24325;SDS011;12448;45.532;5.290;2023-09-19T08:33:38;3.53;;;1.50;;
24325;SDS011;12448;45.532;5.290;2023-09-19T08:36:31;3.00;;;1.45;;
24325;SDS011;12448;45.532;5.290;2023-09-19T08:39:29;4.15;;;1.60;;
24325;SDS011;12448;45.532;5.290;2023-09-19T08:42:46;5.05;;;1.40;;
24325;SDS011;12448;45.532;5.290;2023-09-19T08:45:33;4.85;;;1.73;;
24325;SDS011;12448;45.532;5.290;2023-09-19T08:48:51;2.53;;;1.42;;
24325;SDS011;12448;45.532;5.290;2023-09-19T08:51:18;4.63;;;1.63;;
24325;SDS011;12448;45.532;5.290;2023-09-19T08:54:31;4.05;;;1.27;;
24325;SDS011;12448;45.532;5.290;2023-09-19T08:57:55;6.68;;;1.80;;
24325;SDS011;12448;45.532;5.290;2023-09-19T09:07:45;6.55;;;1.58;;
24325;SDS011;12448;45.532;5.290;2023-09-19T09:18:04;3.78;;;1.83;;
24325;SDS011;12448;45.532;5.290;2023-09-19T09:21:05;3.55;;;1.40;;
24325;SDS011;12448;45.532;5.290;2023-09-19T09:27:12;5.10;;;1.52;;
24325;SDS011;12448;45.532;5.290;2023-09-19T09:29:53;3.40;;;1.38;;
24325;SDS011;12448;45.532;5.290;2023-09-19T09:32:26;3.78;;;1.80;;
24325;SDS011;12448;45.532;5.290;2023-09-19T09:35:00;3.63;;;1.50;;
24325;SDS011;12448;45.532;5.290;2023-09-19T09:37:27;6.47;;;1.38;;
24325;SDS011;12448;45.532;5.290;2023-09-19T09:39:56;3.03;;;1.77;;
24325;SDS011;12448;45.532;5.290;2023-09-19T09:42:33;5.45;;;1.92;;
24325;SDS011;12448;45.532;5.290;2023-09-19T09:45:19;7.25;;;1.48;;
24325;SDS011;12448;45.532;5.290;2023-09-19T09:47:57;4.53;;;1.90;;
24325;SDS011;12448;45.532;5.290;2023-09-19T09:50:39;6.65;;;1.63;;
24325;SDS011;12448;45.532;5.290;2023-09-19T09:53:28;8.50;;;1.77;;
24325;SDS011;12448;45.532;5.290;2023-09-19T09:56:09;6.65;;;1.92;;
24325;SDS011;12448;45.532;5.290;2023-09-19T09:58:37;8.82;;;2.13;;
24325;SDS011;12448;45.532;5.290;2023-09-19T10:01:14;3.45;;;1.83;;
24325;SDS011;12448;45.532;5.290;2023-09-19T10:03:41;3.90;;;1.60;;
24325;SDS011;12448;45.532;5.290;2023-09-19T10:06:14;6.30;;;2.70;;
24325;SDS011;12448;45.532;5.290;2023-09-19T10:08:59;6.50;;;2.05;;
24325;SDS011;12448;45.532;5.290;2023-09-19T10:12:00;10.50;;;2.10;;
24325;SDS011;12448;45.532;5.290;2023-09-19T10:14:34;4.85;;;2.10;;
24325;SDS011;12448;45.532;5.290;2023-09-19T10:17:04;7.25;;;2.50;;
24325;SDS011;12448;45.532;5.290;2023-09-19T10:20:16;6.70;;;2.30;;
24325;SDS011;12448;45.532;5.290;2023-09-19T10:22:22;4.65;;;1.75;;
24325;SDS011;12448;45.532;5.290;2023-09-19T10:24:50;4.88;;;2.00;;
24325;SDS011;12448;45.532;5.290;2023-09-19T10:30:54;5.00;;;2.57;;
24325;SDS011;12448;45.532;5.290;2023-09-19T10:33:32;7.30;;;2.40;;
24325;SDS011;12448;45.532;5.290;2023-09-19T10:36:10;3.65;;;1.70;;
24325;SDS011;12448;45.532;5.290;2023-09-19T10:39:10;3.70;;;1.65;;
24325;SDS011;12448;45.532;5.290;2023-09-19T10:41:49;5.68;;;1.58;;
24325;SDS011;12448;45.532;5.290;2023-09-19T10:44:27;4.82;;;2.00;;
24325;SDS011;12448;45.532;5.290;2023-09-19T10:46:57;4.97;;;1.80;;
24325;SDS011;12448;45.532;5.290;2023-09-19T10:49:24;4.93;;;2.00;;
24325;SDS011;12448;45.532;5.290;2023-09-19T10:51:51;4.22;;;1.70;;
24325;SDS011;12448;45.532;5.290;2023-09-19T10:54:23;4.05;;;2.08;;
24325;SDS011;12448;45.532;5.290;2023-09-19T10:56:54;5.38;;;2.10;;
24325;SDS011;12448;45.532;5.290;2023-09-19T10:59:23;3.97;;;1.40;;
24325;SDS011;12448;45.532;5.290;2023-09-19T11:02:00;3.35;;;1.40;;
24325;SDS011;12448;45.532;5.290;2023-09-19T11:04:43;5.70;;;1.83;;
24325;SDS011;12448;45.532;5.290;2023-09-19T11:07:13;4.93;;;1.95;;
24325;SDS011;12448;45.532;5.290;2023-09-19T11:09:51;6.13;;;2.00;;
24325;SDS011;12448;45.532;5.290;2023-09-19T11:27:08;3.83;;;1.60;;
24325;SDS011;12448;45.532;5.290;2023-09-19T11:29:38;3.35;;;1.48;;
24325;SDS011;12448;45.532;5.290;2023-09-19T11:32:05;2.70;;;1.55;;
24325;SDS011;12448;45.532;5.290;2023-09-19T11:34:40;6.97;;;2.08;;
24325;SDS011;12448;45.532;5.290;2023-09-19T11:39:39;5.45;;;1.80;;
24325;SDS011;12448;45.532;5.290;2023-09-19T11:42:44;4.78;;;1.67;;
24325;SDS011;12448;45.532;5.290;2023-09-19T11:48:23;2.85;;;1.58;;
24325;SDS011;12448;45.532;5.290;2023-09-19T11:50:52;5.30;;;1.70;;
24325;SDS011;12448;45.532;5.290;2023-09-19T11:53:18;3.58;;;1.60;;
24325;SDS011;12448;45.532;5.290;2023-09-19T11:55:46;3.72;;;1.63;;
24325;SDS011;12448;45.532;5.290;2023-09-19T11:58:12;2.33;;;1.60;;
24325;SDS011;12448;45.532;5.290;2023-09-19T12:00:41;4.35;;;1.25;;
24325;SDS011;12448;45.532;5.290;2023-09-19T12:03:10;4.18;;;1.50;;
24325;SDS011;12448;45.532;5.290;2023-09-19T12:05:39;3.15;;;1.50;;
24325;SDS011;12448;45.532;5.290;2023-09-19T12:08:04;4.00;;;1.58;;
24325;SDS011;12448;45.532;5.290;2023-09-19T12:10:44;3.47;;;1.30;;
24325;SDS011;12448;45.532;5.290;2023-09-19T12:13:17;2.60;;;1.40;;
24325;SDS011;12448;45.532;5.290;2023-09-19T12:15:43;2.45;;;1.23;;
24325;SDS011;12448;45.532;5.290;2023-09-19T12:18:25;3.30;;;1.40;;
24325;SDS011;12448;45.532;5.290;2023-09-19T12:20:52;4.80;;;1.57;;
24325;SDS011;12448;45.532;5.290;2023-09-19T12:23:21;4.18;;;1.30;;
24325;SDS011;12448;45.532;5.290;2023-09-19T12:25:47;3.60;;;1.15;;
24325;SDS011;12448;45.532;5.290;2023-09-19T12:28:14;3.75;;;1.20;;
24325;SDS011;12448;45.532;5.290;2023-09-19T12:30:41;3.08;;;1.30;;
24325;SDS011;12448;45.532;5.290;2023-09-19T12:33:19;2.90;;;1.35;;
24325;SDS011;12448;45.532;5.290;2023-09-19T12:35:51;3.30;;;1.30;;
24325;SDS011;12448;45.532;5.290;2023-09-19T12:38:22;5.70;;;1.50;;
24325;SDS011;12448;45.532;5.290;2023-09-19T12:40:54;5.80;;;1.73;;
24325;SDS011;12448;45.532;5.290;2023-09-19T12:43:21;1.98;;;1.27;;
24325;SDS011;12448;45.532;5.290;2023-09-19T12:45:48;2.97;;;1.27;;
24325;SDS011;12448;45.532;5.290;2023-09-19T12:48:17;3.17;;;1.40;;
24325;SDS011;12448;45.532;5.290;2023-09-19T12:53:42;6.25;;;1.50;;
24325;SDS011;12448;45.532;5.290;2023-09-19T12:56:12;4.95;;;1.30;;
24325;SDS011;12448;45.532;5.290;2023-09-19T13:01:21;4.75;;;1.83;;
24325;SDS011;12448;45.532;5.290;2023-09-19T13:06:47;3.13;;;1.50;;
24325;SDS011;12448;45.532;5.290;2023-09-19T13:09:15;2.00;;;1.30;;
24325;SDS011;12448;45.532;5.290;2023-09-19T13:11:41;1.63;;;1.10;;
24325;SDS011;12448;45.532;5.290;2023-09-19T13:14:22;3.13;;;1.58;;
24325;SDS011;12448;45.532;5.290;2023-09-19T13:16:55;3.85;;;1.38;;
24325;SDS011;12448;45.532;5.290;2023-09-19T13:19:41;3.70;;;1.15;;
24325;SDS011;12448;45.532;5.290;2023-09-19T13:25:17;3.58;;;1.40;;
24325;SDS011;12448;45.532;5.290;2023-09-19T13:27:43;1.92;;;1.20;;
24325;SDS011;12448;45.532;5.290;2023-09-19T13:30:11;2.50;;;1.25;;
24325;SDS011;12448;45.532;5.290;2023-09-19T13:32:37;3.70;;;1.40;;
24325;SDS011;12448;45.532;5.290;2023-09-19T13:35:05;3.35;;;1.42;;
24325;SDS011;12448;45.532;5.290;2023-09-19T13:37:34;3.72;;;1.13;;
24325;SDS011;12448;45.532;5.290;2023-09-19T13:40:06;1.83;;;1.00;;
24325;SDS011;12448;45.532;5.290;2023-09-19T13:42:33;2.17;;;1.10;;
24325;SDS011;12448;45.532;5.290;2023-09-19T13:44:58;2.03;;;1.02;;
24325;SDS011;12448;45.532;5.290;2023-09-19T13:47:24;2.58;;;0.90;;
24325;SDS011;12448;45.532;5.290;2023-09-19T13:49:51;2.42;;;1.00;;
24325;SDS011;12448;45.532;5.290;2023-09-19T13:52:18;2.97;;;1.10;;
24325;SDS011;12448;45.532;5.290;2023-09-19T13:54:44;6.07;;;1.50;;
24325;SDS011;12448;45.532;5.290;2023-09-19T13:57:10;4.25;;;1.38;;
24325;SDS011;12448;45.532;5.290;2023-09-19T13:59:35;2.35;;;1.17;;
24325;SDS011;12448;45.532;5.290;2023-09-19T14:02:01;2.65;;;1.27;;
24325;SDS011;12448;45.532;5.290;2023-09-19T14:04:30;3.50;;;1.20;;
24325;SDS011;12448;45.532;5.290;2023-09-19T14:06:56;1.77;;;1.00;;
24325;SDS011;12448;45.532;5.290;2023-09-19T14:09:23;3.17;;;1.10;;
24325;SDS011;12448;45.532;5.290;2023-09-19T14:11:49;2.65;;;1.15;;
24325;SDS011;12448;45.532;5.290;2023-09-19T14:14:17;1.58;;;1.17;;
24325;SDS011;12448;45.532;5.290;2023-09-19T14:16:46;4.05;;;1.10;;
24325;SDS011;12448;45.532;5.290;2023-09-19T14:19:12;1.77;;;1.00;;
24325;SDS011;12448;45.532;5.290;2023-09-19T14:21:41;2.08;;;1.42;;
24325;SDS011;12448;45.532;5.290;2023-09-19T14:24:07;2.88;;;1.10;;
24325;SDS011;12448;45.532;5.290;2023-09-19T14:26:36;4.32;;;1.33;;
24325;SDS011;12448;45.532;5.290;2023-09-19T14:29:02;2.67;;;1.20;;
24325;SDS011;12448;45.532;5.290;2023-09-19T14:31:28;2.38;;;1.10;;
24325;SDS011;12448;45.532;5.290;2023-09-19T14:33:57;1.45;;;0.98;;
24325;SDS011;12448;45.532;5.290;2023-09-19T14:36:24;3.65;;;1.00;;
24325;SDS011;12448;45.532;5.290;2023-09-19T14:38:52;1.38;;;1.10;;
24325;SDS011;12448;45.532;5.290;2023-09-19T14:41:22;3.22;;;1.23;;
24325;SDS011;12448;45.532;5.290;2023-09-19T14:43:50;2.90;;;1.20;;
24325;SDS011;12448;45.532;5.290;2023-09-19T14:46:22;1.55;;;1.10;;
24325;SDS011;12448;45.532;5.290;2023-09-19T14:48:51;3.38;;;1.10;;
24325;SDS011;12448;45.532;5.290;2023-09-19T14:51:17;1.63;;;0.93;;
24325;SDS011;12448;45.532;5.290;2023-09-19T14:53:46;1.88;;;0.80;;
24325;SDS011;12448;45.532;5.290;2023-09-19T14:56:12;1.27;;;0.98;;
24325;SDS011;12448;45.532;5.290;2023-09-19T14:58:43;2.13;;;1.15;;
24325;SDS011;12448;45.532;5.290;2023-09-19T15:01:09;1.33;;;1.10;;
24325;SDS011;12448;45.532;5.290;2023-09-19T15:03:36;2.00;;;1.13;;
24325;SDS011;12448;45.532;5.290;2023-09-19T15:06:04;1.73;;;1.00;;
24325;SDS011;12448;45.532;5.290;2023-09-19T15:08:35;3.53;;;1.20;;
24325;SDS011;12448;45.532;5.290;2023-09-19T15:11:05;2.53;;;0.95;;
24325;SDS011;12448;45.532;5.290;2023-09-19T15:13:31;3.15;;;1.30;;
24325;SDS011;12448;45.532;5.290;2023-09-19T15:16:00;2.65;;;1.42;;
24325;SDS011;12448;45.532;5.290;2023-09-19T15:18:33;1.73;;;1.05;;
24325;SDS011;12448;45.532;5.290;2023-09-19T15:21:05;2.55;;;1.10;;
24325;SDS011;12448;45.532;5.290;2023-09-19T15:23:32;1.52;;;1.20;;
24325;SDS011;12448;45.532;5.290;2023-09-19T15:26:01;3.25;;;1.10;;
24325;SDS011;12448;45.532;5.290;2023-09-19T15:28:32;2.00;;;1.20;;
24325;SDS011;12448;45.532;5.290;2023-09-19T15:31:01;2.92;;;1.08;;
24325;SDS011;12448;45.532;5.290;2023-09-19T15:33:29;3.33;;;1.20;;
24325;SDS011;12448;45.532;5.290;2023-09-19T15:41:29;2.15;;;1.20;;
24325;SDS011;12448;45.532;5.290;2023-09-19T15:44:00;4.10;;;1.00;;
24325;SDS011;12448;45.532;5.290;2023-09-19T15:46:27;2.50;;;1.00;;
24325;SDS011;12448;45.532;5.290;2023-09-19T15:48:54;4.43;;;1.08;;
24325;SDS011;12448;45.532;5.290;2023-09-19T15:51:21;1.92;;;1.02;;
24325;SDS011;12448;45.532;5.290;2023-09-19T15:53:47;2.47;;;1.00;;
24325;SDS011;12448;45.532;5.290;2023-09-19T15:56:17;3.22;;;1.52;;
24325;SDS011;12448;45.532;5.290;2023-09-19T15:58:48;5.10;;;1.30;;
24325;SDS011;12448;45.532;5.290;2023-09-19T16:01:14;1.55;;;0.98;;
24325;SDS011;12448;45.532;5.290;2023-09-19T16:03:44;3.75;;;1.08;;
24325;SDS011;12448;45.532;5.290;2023-09-19T16:06:18;3.70;;;1.10;;
24325;SDS011;12448;45.532;5.290;2023-09-19T16:08:45;4.72;;;1.17;;
24325;SDS011;12448;45.532;5.290;2023-09-19T16:11:12;3.08;;;1.10;;
24325;SDS011;12448;45.532;5.290;2023-09-19T16:13:39;2.45;;;1.10;;
24325;SDS011;12448;45.532;5.290;2023-09-19T16:16:11;2.75;;;1.10;;
24325;SDS011;12448;45.532;5.290;2023-09-19T16:18:37;3.90;;;1.05;;
24325;SDS011;12448;45.532;5.290;2023-09-19T16:21:09;1.88;;;1.25;;
24325;SDS011;12448;45.532;5.290;2023-09-19T16:23:36;2.83;;;1.30;;
24325;SDS011;12448;45.532;5.290;2023-09-19T16:26:07;3.65;;;1.13;;
24325;SDS011;12448;45.532;5.290;2023-09-19T16:28:38;1.90;;;1.30;;
24325;SDS011;12448;45.532;5.290;2023-09-19T16:31:05;1.63;;;0.95;;
24325;SDS011;12448;45.532;5.290;2023-09-19T16:33:32;3.78;;;1.10;;
24325;SDS011;12448;45.532;5.290;2023-09-19T16:35:59;3.42;;;1.10;;
24325;SDS011;12448;45.532;5.290;2023-09-19T16:38:26;2.45;;;1.10;;
24325;SDS011;12448;45.532;5.290;2023-09-19T16:40:56;1.80;;;1.10;;
24325;SDS011;12448;45.532;5.290;2023-09-19T16:43:25;1.33;;;1.00;;
24325;SDS011;12448;45.532;5.290;2023-09-19T16:45:52;2.38;;;1.02;;
24325;SDS011;12448;45.532;5.290;2023-09-19T16:48:25;3.33;;;1.40;;
24325;SDS011;12448;45.532;5.290;2023-09-19T16:50:52;2.83;;;0.88;;
24325;SDS011;12448;45.532;5.290;2023-09-19T16:53:18;1.17;;;1.05;;
24325;SDS011;12448;45.532;5.290;2023-09-19T16:55:47;1.00;;;0.90;;
24325;SDS011;12448;45.532;5.290;2023-09-19T16:58:13;1.95;;;1.00;;
24325;SDS011;12448;45.532;5.290;2023-09-19T17:00:40;7.68;;;1.05;;
24325;SDS011;12448;45.532;5.290;2023-09-19T17:03:11;4.45;;;1.33;;
24325;SDS011;12448;45.532;5.290;2023-09-19T17:05:37;5.60;;;1.30;;
24325;SDS011;12448;45.532;5.290;2023-09-19T17:08:05;2.35;;;1.08;;
24325;SDS011;12448;45.532;5.290;2023-09-19T17:10:32;2.13;;;1.02;;
24325;SDS011;12448;45.532;5.290;2023-09-19T17:13:02;2.65;;;1.20;;
24325;SDS011;12448;45.532;5.290;2023-09-19T17:15:30;2.03;;;1.02;;
24325;SDS011;12448;45.532;5.290;2023-09-19T17:17:56;3.85;;;1.20;;
24325;SDS011;12448;45.532;5.290;2023-09-19T17:20:23;2.95;;;1.20;;
24325;SDS011;12448;45.532;5.290;2023-09-19T17:22:48;1.77;;;1.10;;
24325;SDS011;12448;45.532;5.290;2023-09-19T17:25:15;2.92;;;1.10;;
24325;SDS011;12448;45.532;5.290;2023-09-19T17:27:41;3.55;;;1.60;;
24325;SDS011;12448;45.532;5.290;2023-09-19T17:30:08;3.13;;;1.17;;
24325;SDS011;12448;45.532;5.290;2023-09-19T17:32:40;2.28;;;1.40;;
24325;SDS011;12448;45.532;5.290;2023-09-19T17:35:11;2.35;;;1.08;;
24325;SDS011;12448;45.532;5.290;2023-09-19T17:37:38;2.58;;;0.93;;
24325;SDS011;12448;45.532;5.290;2023-09-19T17:40:07;2.40;;;1.20;;
24325;SDS011;12448;45.532;5.290;2023-09-19T17:42:36;3.70;;;1.27;;
24325;SDS011;12448;45.532;5.290;2023-09-19T17:45:03;6.85;;;1.50;;
24325;SDS011;12448;45.532;5.290;2023-09-19T17:47:29;7.47;;;1.45;;
24325;SDS011;12448;45.532;5.290;2023-09-19T17:49:55;4.80;;;1.48;;
24325;SDS011;12448;45.532;5.290;2023-09-19T17:52:28;2.78;;;1.50;;
24325;SDS011;12448;45.532;5.290;2023-09-19T17:54:57;2.50;;;1.10;;
24325;SDS011;12448;45.532;5.290;2023-09-19T17:57:23;4.00;;;1.30;;
24325;SDS011;12448;45.532;5.290;2023-09-19T17:59:55;4.30;;;1.30;;
24325;SDS011;12448;45.532;5.290;2023-09-19T18:02:23;5.22;;;1.10;;
24325;SDS011;12448;45.532;5.290;2023-09-19T18:04:52;2.40;;;1.20;;
24325;SDS011;12448;45.532;5.290;2023-09-19T18:07:37;6.78;;;1.20;;
24325;SDS011;12448;45.532;5.290;2023-09-19T18:10:13;5.13;;;1.50;;
24325;SDS011;12448;45.532;5.290;2023-09-19T18:12:39;4.57;;;1.40;;
24325;SDS011;12448;45.532;5.290;2023-09-19T18:15:10;5.95;;;1.77;;
24325;SDS011;12448;45.532;5.290;2023-09-19T18:17:58;3.83;;;2.30;;
24325;SDS011;12448;45.532;5.290;2023-09-19T18:20:33;3.65;;;1.70;;
24325;SDS011;12448;45.532;5.290;2023-09-19T18:26:04;6.00;;;2.22;;
24325;SDS011;12448;45.532;5.290;2023-09-19T18:28:36;4.38;;;1.40;;
24325;SDS011;12448;45.532;5.290;2023-09-19T18:31:07;7.00;;;1.55;;
24325;SDS011;12448;45.532;5.290;2023-09-19T18:33:33;8.88;;;1.83;;
24325;SDS011;12448;45.532;5.290;2023-09-19T18:36:02;9.15;;;1.42;;
24325;SDS011;12448;45.532;5.290;2023-09-19T18:38:36;4.35;;;1.63;;
24325;SDS011;12448;45.532;5.290;2023-09-19T18:41:06;7.78;;;1.73;;
24325;SDS011;12448;45.532;5.290;2023-09-19T18:43:33;2.75;;;1.40;;
24325;SDS011;12448;45.532;5.290;2023-09-19T18:45:59;4.97;;;1.50;;
24325;SDS011;12448;45.532;5.290;2023-09-19T18:48:25;2.92;;;1.88;;